Greenville, Iowa
Current Conditions -  °F | °C
As of 5:53 PM on Monday 24 Nov 2014 (Local Time) from KSPW Reporting Station
Overcast Overcast  
Wind Chill:   Ceiling: 2400
Heat Index: 22°   Visibility: 10mi
Dew Point: 13°   Wind: 20mph
Humidity: 68%   Direction: 320°NW
Pressure: 29.84"   Gusts: 28mph
Location:  43.02°N, 95.15°W
Report Text: KSPW 242353Z AUTO 32017G24KT 10SM OVC024 M06/M11 A2984 RMK AO2 PK WND 30034/2301 SLP124 T10561106 11044 21061 53039 TSNO
Loading
Personal Weather Stations






























Interactive Weather Map New forecast layout! Learn more

10-Day Weather Forecast

Advertisements
Track Severe Weather on mobile